createdAt,value
2023-02-19T00:00:01.414Z,243.45
2023-02-19T00:01:01.421Z,245.56
2023-02-19T00:02:01.394Z,242.85
2023-02-19T00:03:01.403Z,245.22
2023-02-19T00:04:01.382Z,245.46
2023-02-19T00:05:01.461Z,244.70
2023-02-19T00:06:01.370Z,242.58
2023-02-19T00:07:01.316Z,244.12
2023-02-19T00:08:01.318Z,246.53
2023-02-19T00:09:01.324Z,244.09
2023-02-19T00:10:01.287Z,245.47
2023-02-19T00:11:01.294Z,244.49
2023-02-19T00:12:01.267Z,242.65
2023-02-19T00:13:01.260Z,244.73
2023-02-19T00:14:01.245Z,244.87
2023-02-19T00:16:01.282Z,246.09
2023-02-19T01:00:01.815Z,245.49
2023-02-19T03:00:59.449Z,74.82
2023-02-19T05:50:58.332Z,57.68
2023-02-19T05:51:58.317Z,54.74
2023-02-19T05:52:58.352Z,54.17
2023-02-19T05:54:58.322Z,55.19
2023-02-19T05:55:58.323Z,58.79
2023-02-19T05:56:58.358Z,60.56
2023-02-19T05:57:58.343Z,64.11
2023-02-19T05:58:58.324Z,63.34
2023-02-19T06:00:58.302Z,63.48
2023-02-19T06:01:58.377Z,65.48
2023-02-19T06:02:58.333Z,67.62
2023-02-19T06:03:58.339Z,67.85
2023-02-19T06:04:58.315Z,66.46
2023-02-19T06:06:58.301Z,70.78
2023-02-19T06:07:58.313Z,70.13
2023-02-19T06:08:58.308Z,72.90
2023-02-19T06:09:58.310Z,72.33
2023-02-19T06:10:58.330Z,69.55
2023-02-19T06:11:58.341Z,66.66
2023-02-19T06:12:58.337Z,65.73
2023-02-19T06:14:58.309Z,68.33
2023-02-19T06:15:58.338Z,67.69
2023-02-19T06:16:58.332Z,66.27
2023-02-19T06:17:58.343Z,65.10
2023-02-19T06:18:58.293Z,68.14
2023-02-19T06:19:58.308Z,72.89
2023-02-19T06:20:58.302Z,69.33
2023-02-19T06:21:58.283Z,68.80
2023-02-19T06:22:58.303Z,67.31
2023-02-19T06:23:58.287Z,66.14
2023-02-19T06:24:58.301Z,65.94
2023-02-19T06:25:58.280Z,66.65
2023-02-19T06:26:58.312Z,68.10
2023-02-19T06:27:58.306Z,63.48
2023-02-19T06:28:58.301Z,62.63
2023-02-19T06:29:58.297Z,62.79
2023-02-19T06:30:58.304Z,59.62
2023-02-19T06:31:58.415Z,58.29
2023-02-19T06:32:58.339Z,57.36
2023-02-19T06:33:58.318Z,59.38
2023-02-19T06:34:58.332Z,60.77
2023-02-19T06:35:58.327Z,63.76
2023-02-19T06:36:58.325Z,65.27
2023-02-19T06:37:58.341Z,66.39
2023-02-19T06:38:58.304Z,67.13
2023-02-19T06:39:58.315Z,70.46
2023-02-19T06:40:58.309Z,69.59
2023-02-19T06:41:58.310Z,67.78
2023-02-19T06:42:58.332Z,68.41
2023-02-19T06:43:58.328Z,67.39
2023-02-19T06:44:58.316Z,69.39
2023-02-19T06:45:58.347Z,70.46
2023-02-19T06:46:58.316Z,71.62
2023-02-19T06:47:58.366Z,71.31
2023-02-19T06:48:58.335Z,74.74
2023-02-19T06:49:58.332Z,74.30
2023-02-19T06:50:58.349Z,76.52
2023-02-19T06:51:58.317Z,77.31
2023-02-19T06:52:58.338Z,79.73
2023-02-19T06:53:58.338Z,79.85
2023-02-19T06:54:58.330Z,80.39
2023-02-19T06:55:58.341Z,82.26
2023-02-19T06:56:58.330Z,84.70
2023-02-19T06:57:58.365Z,91.05
2023-02-19T06:58:58.350Z,93.03
2023-02-19T06:59:58.334Z,94.13
2023-02-19T07:00:58.374Z,96.91
2023-02-19T07:01:58.354Z,99.64
2023-02-19T07:02:58.355Z,100.70
2023-02-19T07:03:58.392Z,101.36
2023-02-19T07:04:58.375Z,101.52
2023-02-19T07:05:58.384Z,101.90
2023-02-19T07:06:58.385Z,101.54
2023-02-19T08:36:58.597Z,156.48
2023-02-19T12:40:53.767Z,247.77
2023-02-19T12:41:53.745Z,249.57
2023-02-19T12:42:53.671Z,247.84
2023-02-19T12:43:53.649Z,249.50
2023-02-19T12:44:53.619Z,249.01
2023-02-19T12:45:53.604Z,248.36
2023-02-19T12:46:53.537Z,248.42
2023-02-19T12:47:53.456Z,248.87
2023-02-19T12:48:53.488Z,248.42
2023-02-19T12:49:53.416Z,249.10
2023-02-19T12:50:53.351Z,248.71
2023-02-19T12:51:53.295Z,249.26
2023-02-19T12:52:53.270Z,248.48
2023-02-19T12:53:53.210Z,248.54
2023-02-19T12:54:55.614Z,248.53
2023-02-19T12:55:53.328Z,247.44
2023-02-19T12:56:53.271Z,247.76
2023-02-19T12:57:53.232Z,248.10
2023-02-19T12:58:53.194Z,247.31
2023-02-19T12:59:53.161Z,247.30
2023-02-19T13:00:53.165Z,248.14
2023-02-19T13:01:53.082Z,248.12
2023-02-19T13:02:53.117Z,247.94
2023-02-19T13:03:53.140Z,248.99
2023-02-19T13:04:53.153Z,249.29
2023-02-19T13:05:53.159Z,249.26
2023-02-19T13:06:53.185Z,249.12
2023-02-19T13:07:53.180Z,248.74
2023-02-19T13:09:05.866Z,249.12
2023-02-19T13:09:53.152Z,249.22
2023-02-19T13:10:53.165Z,249.24
2023-02-19T13:11:53.032Z,249.44
2023-02-19T13:12:52.983Z,250.54
2023-02-19T13:13:52.944Z,250.13
2023-02-19T13:14:52.891Z,248.55
2023-02-19T13:15:52.852Z,249.61
2023-02-19T13:16:52.901Z,249.90
2023-02-19T13:17:52.774Z,249.83
2023-02-19T13:18:52.687Z,248.55
2023-02-19T13:19:52.652Z,249.21
2023-02-19T13:20:52.607Z,249.15
2023-02-19T13:21:52.552Z,248.47
2023-02-19T13:22:52.514Z,248.74
2023-02-19T13:23:52.452Z,248.85
2023-02-19T13:24:52.392Z,249.10
2023-02-19T13:25:53.101Z,248.88
2023-02-19T13:26:52.303Z,248.76
2023-02-19T13:27:52.256Z,249.52
2023-02-19T13:28:52.176Z,249.27
2023-02-19T13:29:53.321Z,248.66
2023-02-19T13:30:52.219Z,249.11
2023-02-19T13:31:52.174Z,249.13
2023-02-19T13:32:51.985Z,249.59
2023-02-19T13:33:51.940Z,249.24
2023-02-19T13:34:51.899Z,249.42
2023-02-19T13:35:51.876Z,249.47
2023-02-19T13:36:51.807Z,249.45
2023-02-19T13:37:51.758Z,249.50
2023-02-19T13:38:51.717Z,249.50
2023-02-19T13:39:51.689Z,249.39
2023-02-19T13:40:51.636Z,249.57
2023-02-19T13:41:51.608Z,249.80
2023-02-19T13:42:51.513Z,249.41
2023-02-19T13:43:51.468Z,248.88
2023-02-19T13:44:55.827Z,248.96
2023-02-19T13:45:52.415Z,249.09
2023-02-19T13:46:51.360Z,249.15
2023-02-19T13:47:51.303Z,249.15
2023-02-19T13:48:51.246Z,248.95
2023-02-19T18:11:44.398Z,238.64
2023-02-19T18:12:44.356Z,236.51
2023-02-19T18:13:44.316Z,238.91
2023-02-19T18:14:44.339Z,238.23
2023-02-19T18:15:44.369Z,237.18
2023-02-19T18:16:44.444Z,237.12
2023-02-19T18:17:44.441Z,237.97
2023-02-19T18:18:44.511Z,236.38
2023-02-19T18:19:44.531Z,235.93
2023-02-19T18:20:44.535Z,236.13
2023-02-19T18:21:44.601Z,235.18
2023-02-19T18:22:44.605Z,236.36
2023-02-19T18:23:44.646Z,236.17
2023-02-19T18:24:44.688Z,237.50
2023-02-19T18:25:44.715Z,235.90
2023-02-19T18:26:44.792Z,236.10
2023-02-19T18:27:44.751Z,237.23
2023-02-19T18:28:44.806Z,235.23
2023-02-19T18:29:44.909Z,235.62
2023-02-19T18:30:45.177Z,236.53
2023-02-19T18:31:45.098Z,234.65
2023-02-19T18:32:45.092Z,235.20
2023-02-19T18:33:44.802Z,235.49
2023-02-19T18:34:44.800Z,235.15
2023-02-19T18:35:44.814Z,235.03
2023-02-19T18:36:44.836Z,237.50
2023-02-19T18:37:44.879Z,233.41
2023-02-19T18:38:44.911Z,234.19
2023-02-19T18:39:44.943Z,236.85
2023-02-19T18:40:44.970Z,236.81
2023-02-19T18:41:45.005Z,237.60
2023-02-19T18:42:45.060Z,235.91
2023-02-19T18:43:45.084Z,236.12
2023-02-19T18:44:45.138Z,233.84
2023-02-19T18:45:45.258Z,233.91
2023-02-19T18:46:45.405Z,234.54
2023-02-19T18:47:45.236Z,235.68
2023-02-19T18:48:45.283Z,235.35
2023-02-19T18:49:45.305Z,236.18
2023-02-19T18:50:45.358Z,237.86
2023-02-19T18:51:45.406Z,236.41
2023-02-19T18:52:45.433Z,235.13
2023-02-19T18:53:45.483Z,236.44
2023-02-19T18:54:45.497Z,237.57
2023-02-19T18:55:45.553Z,237.77
2023-02-19T18:56:45.583Z,234.42
2023-02-19T18:57:45.625Z,236.24
2023-02-19T18:58:45.669Z,235.53
2023-02-19T18:59:45.684Z,236.32
2023-02-19T19:00:45.740Z,236.13
2023-02-19T19:01:45.800Z,234.26
2023-02-19T19:02:49.740Z,234.36
2023-02-19T19:03:46.777Z,234.51
2023-02-19T19:04:45.735Z,235.01
2023-02-19T19:05:45.710Z,235.15
2023-02-19T19:06:45.672Z,236.34
2023-02-19T19:07:45.671Z,236.32
2023-02-19T19:08:45.665Z,235.69
2023-02-19T19:09:45.626Z,237.66
2023-02-19T19:10:45.592Z,234.78
2023-02-19T19:11:45.561Z,235.75
2023-02-19T19:12:45.554Z,234.94
2023-02-19T19:13:45.519Z,234.69
2023-02-19T19:14:45.478Z,233.93
2023-02-19T19:15:45.509Z,238.00
2023-02-19T19:16:45.422Z,235.18
2023-02-19T19:17:45.432Z,236.00
2023-02-19T19:18:45.402Z,235.70
2023-02-19T19:19:45.387Z,235.45
2023-02-19T19:20:45.383Z,238.04
2023-02-19T19:21:45.339Z,236.42
2023-02-19T19:22:45.330Z,238.05
2023-02-19T19:23:45.306Z,237.29
2023-02-19T19:24:45.298Z,235.67
2023-02-19T19:25:45.277Z,238.51
2023-02-19T19:26:45.258Z,237.73
2023-02-19T19:27:45.245Z,235.98
2023-02-19T19:28:45.206Z,236.29
2023-02-19T19:29:45.212Z,234.79
2023-02-19T19:30:45.217Z,234.65
2023-02-19T19:31:45.288Z,236.43
2023-02-19T19:32:45.216Z,237.21
2023-02-19T19:33:45.150Z,236.43
2023-02-19T19:34:45.128Z,236.86
2023-02-19T19:35:45.100Z,236.40
2023-02-19T19:36:45.088Z,235.05
2023-02-19T19:37:45.086Z,234.91
2023-02-19T19:38:45.068Z,236.02
2023-02-19T19:39:45.056Z,239.06
2023-02-19T19:40:45.060Z,236.50
2023-02-19T19:41:45.029Z,236.23
2023-02-19T19:42:45.049Z,236.21
2023-02-19T19:43:44.983Z,234.98
2023-02-19T19:44:44.957Z,235.87
2023-02-19T19:45:44.959Z,236.39
2023-02-19T19:46:44.941Z,235.39
2023-02-19T19:47:44.907Z,236.36
2023-02-19T19:48:44.943Z,234.73
2023-02-19T19:49:44.898Z,237.03
2023-02-19T19:50:44.865Z,236.58
2023-02-19T19:51:44.857Z,238.12
2023-02-19T19:52:44.839Z,236.76
2023-02-19T19:53:44.845Z,236.49
2023-02-19T19:54:44.794Z,236.62
2023-02-19T19:55:44.801Z,234.89
2023-02-19T19:56:44.775Z,234.70
2023-02-19T19:57:44.768Z,234.09
2023-02-19T19:58:44.762Z,235.49
2023-02-19T19:59:44.722Z,235.21
2023-02-19T20:00:44.693Z,236.56
2023-02-19T20:01:44.712Z,234.88
2023-02-19T20:02:44.702Z,235.83
2023-02-19T20:03:44.662Z,235.05
2023-02-19T20:04:44.599Z,236.12
2023-02-19T20:05:44.609Z,236.27
2023-02-19T20:06:44.604Z,236.49
2023-02-19T20:07:44.580Z,236.36
2023-02-19T20:08:44.561Z,236.88
2023-02-19T20:09:44.534Z,236.51
2023-02-19T20:10:45.509Z,237.99
2023-02-19T20:11:44.498Z,239.36
2023-02-19T20:12:44.461Z,234.34
2023-02-19T20:13:44.465Z,236.15
2023-02-19T20:14:44.417Z,237.80
2023-02-19T20:15:44.451Z,236.08
2023-02-19T20:16:44.782Z,236.61
2023-02-19T20:17:44.357Z,236.89
2023-02-19T20:18:44.358Z,235.27
2023-02-19T20:19:44.323Z,236.14
2023-02-19T20:20:44.301Z,237.57
2023-02-19T20:21:44.288Z,234.78
2023-02-19T20:22:44.267Z,238.49
2023-02-19T20:23:44.258Z,238.15
2023-02-19T20:24:44.218Z,236.94
2023-02-19T20:25:44.190Z,237.33
2023-02-19T20:26:44.190Z,237.11
2023-02-19T20:27:44.155Z,237.77
2023-02-19T20:28:44.150Z,237.04
2023-02-19T20:29:44.119Z,235.73
2023-02-19T20:30:44.113Z,238.86
2023-02-19T20:31:44.210Z,237.29
2023-02-19T20:32:44.094Z,238.96
2023-02-19T20:33:44.114Z,238.96
2023-02-19T20:34:44.057Z,235.00
2023-02-19T20:35:44.052Z,237.15
2023-02-19T20:36:44.035Z,237.48
2023-02-19T20:37:44.021Z,236.67
2023-02-19T20:38:44.008Z,235.11
2023-02-19T20:39:43.983Z,237.32
2023-02-19T20:40:43.965Z,237.11
2023-02-19T20:41:43.953Z,235.84
2023-02-19T20:42:43.936Z,238.64
2023-02-19T20:43:43.932Z,239.26
2023-02-19T20:44:43.933Z,238.33
2023-02-19T20:45:43.908Z,238.07
2023-02-19T20:46:43.916Z,237.15
2023-02-19T20:47:43.880Z,237.11
2023-02-19T20:48:43.838Z,235.32
2023-02-19T20:49:43.854Z,236.42
2023-02-19T20:50:43.806Z,236.14
2023-02-19T20:51:43.785Z,237.79
2023-02-19T20:52:43.794Z,235.08
2023-02-19T20:53:43.795Z,235.70
2023-02-19T20:54:43.751Z,236.70
2023-02-19T20:55:43.763Z,237.39
2023-02-19T20:56:43.740Z,235.78
2023-02-19T20:57:43.723Z,238.33
2023-02-19T20:58:43.712Z,237.26
2023-02-19T20:59:43.696Z,235.35
2023-02-19T21:00:43.668Z,238.14
2023-02-19T21:01:43.686Z,237.76
2023-02-19T21:02:43.665Z,236.01
2023-02-19T21:03:43.601Z,235.14
2023-02-19T21:04:43.622Z,235.35
2023-02-19T21:05:43.635Z,234.88
2023-02-19T21:06:43.566Z,236.37
2023-02-19T21:07:43.535Z,237.15
2023-02-19T21:08:43.495Z,238.47
2023-02-19T21:09:43.514Z,238.00
2023-02-19T21:10:43.490Z,237.56
2023-02-19T21:11:43.456Z,239.11
2023-02-19T21:12:43.472Z,235.97
2023-02-19T21:13:43.430Z,237.41
2023-02-19T21:14:43.433Z,237.50
2023-02-19T21:15:43.454Z,235.74
2023-02-19T21:16:43.358Z,236.42
2023-02-19T21:17:43.331Z,236.23
2023-02-19T21:18:43.308Z,238.64
2023-02-19T21:19:43.328Z,239.04
2023-02-19T21:20:43.281Z,237.15
2023-02-19T21:21:43.253Z,235.78
2023-02-19T21:22:43.259Z,237.21
2023-02-19T21:23:43.219Z,234.72
2023-02-19T21:24:43.225Z,236.56
2023-02-19T21:25:43.178Z,237.68
2023-02-19T21:26:43.148Z,235.30
2023-02-19T21:27:43.150Z,236.91
2023-02-19T21:28:43.106Z,235.52
2023-02-19T21:29:43.126Z,238.59
2023-02-19T21:30:43.127Z,236.79
2023-02-19T21:31:43.175Z,236.40
2023-02-19T21:32:43.022Z,236.62
2023-02-19T21:33:43.004Z,237.43
2023-02-19T21:34:43.037Z,237.15
2023-02-19T21:35:42.970Z,235.08
2023-02-19T21:36:42.941Z,238.53
2023-02-19T21:37:42.907Z,237.35
2023-02-19T21:38:42.906Z,236.99
2023-02-19T21:39:42.871Z,238.10
2023-02-19T21:40:42.877Z,236.06
2023-02-19T21:41:42.834Z,233.77
2023-02-19T21:42:42.816Z,236.91
2023-02-19T21:43:42.801Z,235.43
2023-02-19T21:44:43.208Z,238.32
2023-02-19T21:45:42.870Z,235.56
2023-02-19T21:46:42.736Z,238.26
2023-02-19T21:47:42.686Z,236.87
2023-02-19T21:48:42.671Z,237.42
2023-02-19T21:49:42.669Z,235.98
2023-02-19T21:50:42.676Z,237.27
2023-02-19T21:51:42.639Z,238.12
2023-02-19T21:52:42.640Z,237.55
2023-02-19T21:53:42.596Z,233.95
2023-02-19T21:54:42.601Z,239.14
2023-02-19T21:55:49.997Z,235.44
2023-02-19T21:56:43.583Z,235.74
2023-02-19T21:57:42.529Z,236.07
2023-02-19T21:58:42.515Z,236.16
2023-02-19T21:59:42.491Z,236.98
2023-02-19T22:00:42.515Z,238.65
2023-02-19T22:01:42.453Z,237.27
2023-02-19T22:02:42.476Z,237.63
2023-02-19T22:03:42.426Z,237.57
2023-02-19T22:04:42.406Z,239.48
2023-02-19T22:05:42.404Z,237.14
2023-02-19T22:06:42.377Z,238.40
2023-02-19T22:07:42.374Z,236.69
2023-02-19T22:08:42.352Z,236.92
2023-02-19T22:09:42.334Z,237.19
2023-02-19T22:10:42.353Z,237.25
2023-02-19T22:11:42.307Z,238.21
2023-02-19T22:12:42.310Z,238.99
2023-02-19T22:13:42.266Z,237.54
2023-02-19T22:14:42.284Z,237.31
2023-02-19T22:15:42.240Z,238.47
2023-02-19T22:16:42.224Z,237.46
2023-02-19T22:17:42.220Z,237.54
2023-02-19T22:18:42.201Z,237.81
2023-02-19T22:19:42.190Z,239.77
2023-02-19T22:20:42.190Z,238.02
2023-02-19T22:21:42.151Z,237.41
2023-02-19T22:22:42.157Z,235.71
2023-02-19T22:23:42.115Z,235.57
2023-02-19T22:24:42.116Z,238.10
2023-02-19T22:25:42.582Z,235.13
2023-02-19T22:26:42.098Z,235.08
2023-02-19T22:27:42.074Z,236.67
2023-02-19T22:28:42.078Z,234.04
2023-02-19T22:29:42.078Z,237.47
2023-02-19T22:30:42.099Z,238.06
2023-02-19T22:31:42.258Z,235.58
2023-02-19T22:32:42.055Z,237.62
2023-02-19T22:33:42.020Z,238.22
2023-02-19T22:34:42.021Z,237.66
2023-02-19T22:35:42.028Z,236.39
2023-02-19T22:36:41.986Z,236.44
2023-02-19T22:37:41.953Z,234.50
2023-02-19T22:38:41.961Z,238.42
2023-02-19T22:39:41.943Z,235.58
2023-02-19T22:40:41.929Z,238.16
2023-02-19T22:41:41.925Z,236.00
2023-02-19T22:42:41.909Z,237.62
2023-02-19T22:43:41.912Z,238.26
2023-02-19T22:44:41.880Z,237.96
2023-02-19T22:45:41.871Z,236.18
2023-02-19T22:46:41.912Z,236.83
2023-02-19T22:47:41.833Z,237.91
2023-02-19T22:48:41.803Z,237.04
2023-02-19T22:49:43.810Z,237.35
2023-02-19T22:50:41.762Z,237.52
2023-02-19T22:51:41.776Z,235.79
2023-02-19T22:52:41.733Z,234.80
2023-02-19T22:53:41.739Z,237.36
2023-02-19T22:54:41.740Z,237.53
2023-02-19T22:55:41.690Z,237.10
2023-02-19T22:56:41.696Z,238.09
2023-02-19T22:57:41.689Z,237.28
2023-02-19T22:58:41.652Z,236.35
2023-02-19T22:59:41.644Z,235.88
2023-02-19T23:00:41.623Z,238.84
2023-02-19T23:01:41.632Z,235.90
2023-02-19T23:02:41.650Z,236.90
2023-02-19T23:03:41.685Z,236.36
2023-02-19T23:04:41.741Z,235.11
2023-02-19T23:05:41.817Z,238.41
2023-02-19T23:06:41.827Z,236.39
2023-02-19T23:07:41.889Z,235.22
2023-02-19T23:08:41.892Z,236.37
2023-02-19T23:09:41.961Z,236.53
2023-02-19T23:10:42.004Z,238.46
2023-02-19T23:11:42.077Z,235.60
2023-02-19T23:12:42.099Z,235.41
2023-02-19T23:13:42.126Z,236.33
2023-02-19T23:14:42.185Z,236.58
2023-02-19T23:15:42.218Z,237.33
2023-02-19T23:16:42.295Z,238.90
2023-02-19T23:17:42.319Z,235.69
2023-02-19T23:18:42.324Z,238.85
2023-02-19T23:19:42.383Z,239.48
2023-02-19T23:20:42.439Z,237.23
2023-02-19T23:21:42.495Z,237.67
2023-02-19T23:22:42.516Z,234.30
2023-02-19T23:23:42.556Z,236.75
2023-02-19T23:24:42.629Z,235.31
2023-02-19T23:25:42.653Z,237.13
2023-02-19T23:26:42.729Z,236.59
2023-02-19T23:27:42.721Z,234.66
2023-02-19T23:28:42.784Z,235.84
2023-02-19T23:29:42.805Z,237.42
2023-02-19T23:30:42.948Z,235.83
2023-02-19T23:31:43.089Z,237.67
2023-02-19T23:32:42.957Z,237.78
2023-02-19T23:33:42.992Z,236.56
2023-02-19T23:34:43.038Z,237.33
2023-02-19T23:35:43.072Z,234.52
2023-02-19T23:36:43.146Z,236.33
2023-02-19T23:37:43.160Z,235.43
2023-02-19T23:38:43.210Z,238.45
2023-02-19T23:39:43.265Z,235.00
2023-02-19T23:40:43.289Z,235.86
2023-02-19T23:41:43.339Z,236.85
2023-02-19T23:42:43.393Z,237.55
2023-02-19T23:43:43.488Z,234.18
2023-02-19T23:44:43.485Z,236.08
2023-02-19T23:45:43.553Z,236.55
2023-02-19T23:46:43.558Z,236.45
2023-02-19T23:47:43.640Z,236.58
2023-02-19T23:48:43.657Z,233.82
2023-02-19T23:49:43.707Z,236.16
2023-02-19T23:50:43.772Z,235.92
2023-02-19T23:51:43.791Z,238.20
2023-02-19T23:52:43.896Z,234.57
2023-02-19T23:53:43.897Z,235.03
2023-02-19T23:54:43.926Z,236.47
2023-02-19T23:55:43.978Z,237.10
2023-02-19T23:56:44.041Z,234.50
2023-02-19T23:57:44.099Z,235.97
2023-02-19T23:58:44.101Z,236.13
2023-02-19T23:59:44.149Z,234.35
